sensor_id;sensor_type;location;lat;lon;timestamp;P1;durP1;ratioP1;P2;durP2;ratioP2
18251;SDS011;26917;52.328;20.878;2022-08-01T00:01:30;27.65;;;11.15;;
18251;SDS011;26917;52.328;20.878;2022-08-01T00:03:58;31.95;;;10.90;;
18251;SDS011;26917;52.328;20.878;2022-08-01T00:06:27;22.05;;;11.18;;
18251;SDS011;26917;52.328;20.878;2022-08-01T00:08:55;18.80;;;10.98;;
18251;SDS011;26917;52.328;20.878;2022-08-01T00:11:23;22.35;;;12.48;;
18251;SDS011;26917;52.328;20.878;2022-08-01T00:13:53;19.75;;;11.43;;
18251;SDS011;26917;52.328;20.878;2022-08-01T00:16:21;24.75;;;11.77;;
18251;SDS011;26917;52.328;20.878;2022-08-01T00:18:51;24.75;;;11.75;;
18251;SDS011;26917;52.328;20.878;2022-08-01T00:21:20;19.85;;;11.00;;
18251;SDS011;26917;52.328;20.878;2022-08-01T00:23:49;27.02;;;11.32;;
18251;SDS011;26917;52.328;20.878;2022-08-01T00:26:17;24.38;;;13.40;;
18251;SDS011;26917;52.328;20.878;2022-08-01T00:28:47;21.30;;;12.02;;
18251;SDS011;26917;52.328;20.878;2022-08-01T00:31:16;23.85;;;11.23;;
18251;SDS011;26917;52.328;20.878;2022-08-01T00:33:46;22.35;;;11.63;;
18251;SDS011;26917;52.328;20.878;2022-08-01T00:36:17;25.63;;;12.05;;
18251;SDS011;26917;52.328;20.878;2022-08-01T00:38:45;20.38;;;11.05;;
18251;SDS011;26917;52.328;20.878;2022-08-01T00:41:14;21.88;;;11.88;;
18251;SDS011;26917;52.328;20.878;2022-08-01T00:43:42;18.13;;;10.60;;
18251;SDS011;26917;52.328;20.878;2022-08-01T00:46:11;20.02;;;11.23;;
18251;SDS011;26917;52.328;20.878;2022-08-01T00:48:39;20.70;;;12.15;;
18251;SDS011;26917;52.328;20.878;2022-08-01T00:51:08;23.35;;;11.38;;
18251;SDS011;26917;52.328;20.878;2022-08-01T00:53:38;29.20;;;12.65;;
18251;SDS011;26917;52.328;20.878;2022-08-01T00:56:18;20.70;;;10.57;;
18251;SDS011;26917;52.328;20.878;2022-08-01T00:58:47;21.33;;;11.60;;
18251;SDS011;26917;52.328;20.878;2022-08-01T01:01:15;21.88;;;11.45;;
18251;SDS011;26917;52.328;20.878;2022-08-01T01:03:44;25.95;;;11.70;;
18251;SDS011;26917;52.328;20.878;2022-08-01T01:06:40;27.88;;;13.13;;
18251;SDS011;26917;52.328;20.878;2022-08-01T01:09:28;26.70;;;11.77;;
18251;SDS011;26917;52.328;20.878;2022-08-01T01:12:08;23.08;;;11.73;;
18251;SDS011;26917;52.328;20.878;2022-08-01T01:14:44;23.73;;;10.77;;
18251;SDS011;26917;52.328;20.878;2022-08-01T01:17:21;23.33;;;10.32;;
18251;SDS011;26917;52.328;20.878;2022-08-01T01:20:17;19.77;;;11.10;;
18251;SDS011;26917;52.328;20.878;2022-08-01T01:22:53;23.25;;;11.57;;
18251;SDS011;26917;52.328;20.878;2022-08-01T01:28:54;21.48;;;10.98;;
18251;SDS011;26917;52.328;20.878;2022-08-01T01:31:29;17.98;;;11.07;;
18251;SDS011;26917;52.328;20.878;2022-08-01T01:34:01;21.40;;;12.65;;
18251;SDS011;26917;52.328;20.878;2022-08-01T01:36:31;25.13;;;12.02;;
18251;SDS011;26917;52.328;20.878;2022-08-01T01:39:01;32.28;;;11.48;;
18251;SDS011;26917;52.328;20.878;2022-08-01T01:41:30;24.10;;;11.13;;
18251;SDS011;26917;52.328;20.878;2022-08-01T01:44:00;27.38;;;12.35;;
18251;SDS011;26917;52.328;20.878;2022-08-01T01:46:31;22.83;;;11.63;;
18251;SDS011;26917;52.328;20.878;2022-08-01T01:48:59;23.10;;;11.50;;
18251;SDS011;26917;52.328;20.878;2022-08-01T01:51:30;22.75;;;11.15;;
18251;SDS011;26917;52.328;20.878;2022-08-01T01:53:59;26.20;;;12.75;;
18251;SDS011;26917;52.328;20.878;2022-08-01T01:56:29;22.00;;;11.82;;
18251;SDS011;26917;52.328;20.878;2022-08-01T01:59:01;22.88;;;11.50;;
18251;SDS011;26917;52.328;20.878;2022-08-01T02:01:31;25.20;;;11.93;;
18251;SDS011;26917;52.328;20.878;2022-08-01T02:04:21;24.83;;;10.93;;
18251;SDS011;26917;52.328;20.878;2022-08-01T02:06:52;25.40;;;11.48;;
18251;SDS011;26917;52.328;20.878;2022-08-01T02:09:21;20.63;;;12.90;;
18251;SDS011;26917;52.328;20.878;2022-08-01T02:11:52;21.88;;;10.75;;
18251;SDS011;26917;52.328;20.878;2022-08-01T02:14:35;23.60;;;11.07;;
18251;SDS011;26917;52.328;20.878;2022-08-01T02:17:06;22.80;;;10.43;;
18251;SDS011;26917;52.328;20.878;2022-08-01T02:19:38;25.65;;;11.57;;
18251;SDS011;26917;52.328;20.878;2022-08-01T02:22:07;30.23;;;11.50;;
18251;SDS011;26917;52.328;20.878;2022-08-01T02:24:39;26.38;;;12.13;;
18251;SDS011;26917;52.328;20.878;2022-08-01T02:27:12;26.05;;;12.57;;
18251;SDS011;26917;52.328;20.878;2022-08-01T02:29:47;38.13;;;11.82;;
18251;SDS011;26917;52.328;20.878;2022-08-01T02:32:25;26.50;;;14.13;;
18251;SDS011;26917;52.328;20.878;2022-08-01T02:34:58;25.20;;;10.98;;
18251;SDS011;26917;52.328;20.878;2022-08-01T02:37:29;29.00;;;11.73;;
18251;SDS011;26917;52.328;20.878;2022-08-01T02:40:01;25.70;;;12.05;;
18251;SDS011;26917;52.328;20.878;2022-08-01T02:42:31;25.63;;;11.55;;
18251;SDS011;26917;52.328;20.878;2022-08-01T02:45:04;27.95;;;11.95;;
18251;SDS011;26917;52.328;20.878;2022-08-01T02:47:34;40.35;;;12.77;;
18251;SDS011;26917;52.328;20.878;2022-08-01T02:50:05;27.35;;;12.23;;
18251;SDS011;26917;52.328;20.878;2022-08-01T02:52:35;25.73;;;11.93;;
18251;SDS011;26917;52.328;20.878;2022-08-01T02:55:06;28.88;;;12.63;;
18251;SDS011;26917;52.328;20.878;2022-08-01T02:57:37;33.70;;;13.27;;
18251;SDS011;26917;52.328;20.878;2022-08-01T03:00:19;26.48;;;12.10;;
18251;SDS011;26917;52.328;20.878;2022-08-01T03:02:50;28.63;;;13.48;;
18251;SDS011;26917;52.328;20.878;2022-08-01T03:05:21;26.65;;;13.70;;
18251;SDS011;26917;52.328;20.878;2022-08-01T03:07:51;28.92;;;12.82;;
18251;SDS011;26917;52.328;20.878;2022-08-01T03:10:28;29.08;;;12.52;;
18251;SDS011;26917;52.328;20.878;2022-08-01T03:12:57;30.05;;;13.38;;
18251;SDS011;26917;52.328;20.878;2022-08-01T03:15:29;30.77;;;13.02;;
18251;SDS011;26917;52.328;20.878;2022-08-01T03:18:00;24.35;;;13.25;;
18251;SDS011;26917;52.328;20.878;2022-08-01T03:20:31;28.20;;;13.57;;
18251;SDS011;26917;52.328;20.878;2022-08-01T03:23:01;34.60;;;14.02;;
18251;SDS011;26917;52.328;20.878;2022-08-01T03:25:32;30.45;;;14.55;;
18251;SDS011;26917;52.328;20.878;2022-08-01T03:28:03;30.52;;;13.65;;
18251;SDS011;26917;52.328;20.878;2022-08-01T03:30:35;23.38;;;11.85;;
18251;SDS011;26917;52.328;20.878;2022-08-01T03:33:05;28.33;;;13.73;;
18251;SDS011;26917;52.328;20.878;2022-08-01T03:35:34;30.10;;;13.60;;
18251;SDS011;26917;52.328;20.878;2022-08-01T03:38:05;25.90;;;12.90;;
18251;SDS011;26917;52.328;20.878;2022-08-01T03:40:43;34.00;;;12.20;;
18251;SDS011;26917;52.328;20.878;2022-08-01T03:43:18;29.27;;;13.82;;
18251;SDS011;26917;52.328;20.878;2022-08-01T03:45:51;36.75;;;15.68;;
18251;SDS011;26917;52.328;20.878;2022-08-01T03:48:22;31.48;;;14.07;;
18251;SDS011;26917;52.328;20.878;2022-08-01T03:50:56;32.63;;;13.63;;
18251;SDS011;26917;52.328;20.878;2022-08-01T03:53:28;31.58;;;13.25;;
18251;SDS011;26917;52.328;20.878;2022-08-01T03:55:59;32.35;;;14.35;;
18251;SDS011;26917;52.328;20.878;2022-08-01T03:58:29;33.05;;;14.90;;
18251;SDS011;26917;52.328;20.878;2022-08-01T04:01:00;30.40;;;13.35;;
18251;SDS011;26917;52.328;20.878;2022-08-01T04:03:30;32.78;;;14.75;;
18251;SDS011;26917;52.328;20.878;2022-08-01T04:06:08;35.88;;;15.43;;
18251;SDS011;26917;52.328;20.878;2022-08-01T04:08:37;43.60;;;15.50;;
18251;SDS011;26917;52.328;20.878;2022-08-01T04:11:07;35.75;;;15.02;;
18251;SDS011;26917;52.328;20.878;2022-08-01T04:13:36;37.63;;;16.30;;
18251;SDS011;26917;52.328;20.878;2022-08-01T04:16:06;33.72;;;15.45;;
18251;SDS011;26917;52.328;20.878;2022-08-01T04:18:34;30.42;;;15.32;;
18251;SDS011;26917;52.328;20.878;2022-08-01T04:21:03;29.00;;;14.07;;
18251;SDS011;26917;52.328;20.878;2022-08-01T04:23:31;38.05;;;15.32;;
18251;SDS011;26917;52.328;20.878;2022-08-01T04:26:02;31.38;;;14.98;;
18251;SDS011;26917;52.328;20.878;2022-08-01T04:28:32;34.70;;;15.52;;
18251;SDS011;26917;52.328;20.878;2022-08-01T04:31:04;34.78;;;15.05;;
18251;SDS011;26917;52.328;20.878;2022-08-01T04:33:38;37.53;;;15.35;;
18251;SDS011;26917;52.328;20.878;2022-08-01T04:36:08;38.83;;;15.98;;
18251;SDS011;26917;52.328;20.878;2022-08-01T04:38:39;33.13;;;15.73;;
18251;SDS011;26917;52.328;20.878;2022-08-01T04:41:12;36.92;;;15.75;;
18251;SDS011;26917;52.328;20.878;2022-08-01T04:43:41;31.42;;;14.82;;
18251;SDS011;26917;52.328;20.878;2022-08-01T04:46:11;31.67;;;15.63;;
18251;SDS011;26917;52.328;20.878;2022-08-01T04:48:40;34.58;;;14.52;;
18251;SDS011;26917;52.328;20.878;2022-08-01T04:51:11;37.20;;;15.82;;
18251;SDS011;26917;52.328;20.878;2022-08-01T04:53:41;40.85;;;16.42;;
18251;SDS011;26917;52.328;20.878;2022-08-01T04:56:12;29.38;;;14.73;;
18251;SDS011;26917;52.328;20.878;2022-08-01T04:58:40;38.28;;;16.50;;
18251;SDS011;26917;52.328;20.878;2022-08-01T05:01:11;33.08;;;14.88;;
18251;SDS011;26917;52.328;20.878;2022-08-01T05:03:40;29.55;;;15.25;;
18251;SDS011;26917;52.328;20.878;2022-08-01T05:06:10;30.38;;;15.35;;
18251;SDS011;26917;52.328;20.878;2022-08-01T05:08:38;47.60;;;17.73;;
18251;SDS011;26917;52.328;20.878;2022-08-01T05:11:07;40.72;;;17.30;;
18251;SDS011;26917;52.328;20.878;2022-08-01T05:13:37;35.97;;;15.85;;
18251;SDS011;26917;52.328;20.878;2022-08-01T05:16:06;37.63;;;16.08;;
18251;SDS011;26917;52.328;20.878;2022-08-01T05:18:36;42.83;;;16.33;;
18251;SDS011;26917;52.328;20.878;2022-08-01T05:21:05;36.05;;;16.35;;
18251;SDS011;26917;52.328;20.878;2022-08-01T05:23:34;47.83;;;17.45;;
18251;SDS011;26917;52.328;20.878;2022-08-01T05:26:08;43.80;;;18.23;;
18251;SDS011;26917;52.328;20.878;2022-08-01T05:28:40;33.20;;;16.35;;
18251;SDS011;26917;52.328;20.878;2022-08-01T05:31:08;38.72;;;16.67;;
18251;SDS011;26917;52.328;20.878;2022-08-01T05:33:38;37.95;;;16.20;;
18251;SDS011;26917;52.328;20.878;2022-08-01T05:36:07;35.85;;;15.43;;
18251;SDS011;26917;52.328;20.878;2022-08-01T05:38:39;39.03;;;16.92;;
18251;SDS011;26917;52.328;20.878;2022-08-01T05:41:08;32.90;;;15.35;;
18251;SDS011;26917;52.328;20.878;2022-08-01T05:43:37;36.63;;;14.98;;
18251;SDS011;26917;52.328;20.878;2022-08-01T05:46:05;30.40;;;13.90;;
18251;SDS011;26917;52.328;20.878;2022-08-01T05:48:34;24.30;;;13.85;;
18251;SDS011;26917;52.328;20.878;2022-08-01T05:51:03;26.50;;;13.02;;
18251;SDS011;26917;52.328;20.878;2022-08-01T05:53:32;25.15;;;13.02;;
18251;SDS011;26917;52.328;20.878;2022-08-01T05:56:01;25.23;;;12.90;;
18251;SDS011;26917;52.328;20.878;2022-08-01T05:58:29;26.17;;;13.23;;
18251;SDS011;26917;52.328;20.878;2022-08-01T06:00:58;24.52;;;12.15;;
18251;SDS011;26917;52.328;20.878;2022-08-01T06:03:26;25.45;;;12.77;;
18251;SDS011;26917;52.328;20.878;2022-08-01T06:05:57;19.88;;;11.93;;
18251;SDS011;26917;52.328;20.878;2022-08-01T06:08:27;26.17;;;9.73;;
18251;SDS011;26917;52.328;20.878;2022-08-01T06:10:56;18.02;;;10.43;;
18251;SDS011;26917;52.328;20.878;2022-08-01T06:13:31;20.27;;;10.27;;
18251;SDS011;26917;52.328;20.878;2022-08-01T06:16:13;22.15;;;9.98;;
18251;SDS011;26917;52.328;20.878;2022-08-01T06:18:42;18.27;;;9.63;;
18251;SDS011;26917;52.328;20.878;2022-08-01T06:21:11;24.73;;;10.63;;
18251;SDS011;26917;52.328;20.878;2022-08-01T06:23:40;21.08;;;11.10;;
18251;SDS011;26917;52.328;20.878;2022-08-01T06:26:09;14.60;;;9.27;;
18251;SDS011;26917;52.328;20.878;2022-08-01T06:31:30;13.93;;;7.97;;
18251;SDS011;26917;52.328;20.878;2022-08-01T06:34:46;16.45;;;8.15;;
18251;SDS011;26917;52.328;20.878;2022-08-01T06:37:16;13.40;;;7.82;;
18251;SDS011;26917;52.328;20.878;2022-08-01T06:57:58;10.10;;;6.95;;
18251;SDS011;26917;52.328;20.878;2022-08-01T07:00:27;13.40;;;6.88;;
18251;SDS011;26917;52.328;20.878;2022-08-01T07:02:55;15.98;;;8.35;;
18251;SDS011;26917;52.328;20.878;2022-08-01T07:05:26;15.48;;;7.43;;
18251;SDS011;26917;52.328;20.878;2022-08-01T07:07:57;14.35;;;7.95;;
18251;SDS011;26917;52.328;20.878;2022-08-01T07:10:25;15.95;;;8.15;;
18251;SDS011;26917;52.328;20.878;2022-08-01T07:12:54;9.07;;;6.68;;
18251;SDS011;26917;52.328;20.878;2022-08-01T07:15:23;16.15;;;6.50;;
18251;SDS011;26917;52.328;20.878;2022-08-01T07:17:53;10.38;;;6.72;;
18251;SDS011;26917;52.328;20.878;2022-08-01T07:20:22;10.00;;;6.40;;
18251;SDS011;26917;52.328;20.878;2022-08-01T07:23:18;7.13;;;5.45;;
18251;SDS011;26917;52.328;20.878;2022-08-01T07:25:48;7.65;;;5.97;;
18251;SDS011;26917;52.328;20.878;2022-08-01T07:28:23;11.75;;;4.93;;
18251;SDS011;26917;52.328;20.878;2022-08-01T07:30:53;6.95;;;4.20;;
18251;SDS011;26917;52.328;20.878;2022-08-01T07:33:21;9.02;;;4.25;;
18251;SDS011;26917;52.328;20.878;2022-08-01T07:35:50;6.03;;;4.80;;
18251;SDS011;26917;52.328;20.878;2022-08-01T07:38:18;5.68;;;4.55;;
18251;SDS011;26917;52.328;20.878;2022-08-01T07:40:46;9.80;;;4.70;;
18251;SDS011;26917;52.328;20.878;2022-08-01T07:43:15;6.72;;;4.10;;
18251;SDS011;26917;52.328;20.878;2022-08-01T07:45:43;9.50;;;4.13;;
18251;SDS011;26917;52.328;20.878;2022-08-01T07:48:13;5.38;;;3.95;;
18251;SDS011;26917;52.328;20.878;2022-08-01T07:50:41;8.55;;;3.60;;
18251;SDS011;26917;52.328;20.878;2022-08-01T07:53:10;5.28;;;3.33;;
18251;SDS011;26917;52.328;20.878;2022-08-01T07:55:38;6.47;;;3.13;;
18251;SDS011;26917;52.328;20.878;2022-08-01T07:58:06;5.10;;;3.40;;
18251;SDS011;26917;52.328;20.878;2022-08-01T08:00:35;3.80;;;3.40;;
18251;SDS011;26917;52.328;20.878;2022-08-01T08:03:04;6.18;;;3.10;;
18251;SDS011;26917;52.328;20.878;2022-08-01T08:05:34;5.03;;;3.05;;
18251;SDS011;26917;52.328;20.878;2022-08-01T08:08:22;3.97;;;3.10;;
18251;SDS011;26917;52.328;20.878;2022-08-01T08:10:51;5.40;;;2.80;;
18251;SDS011;26917;52.328;20.878;2022-08-01T08:13:19;7.07;;;3.90;;
18251;SDS011;26917;52.328;20.878;2022-08-01T08:15:48;5.18;;;3.08;;
18251;SDS011;26917;52.328;20.878;2022-08-01T08:18:16;3.67;;;2.88;;
18251;SDS011;26917;52.328;20.878;2022-08-01T08:23:32;4.93;;;3.15;;
18251;SDS011;26917;52.328;20.878;2022-08-01T08:26:20;3.83;;;3.20;;
18251;SDS011;26917;52.328;20.878;2022-08-01T08:28:49;5.53;;;2.75;;
18251;SDS011;26917;52.328;20.878;2022-08-01T08:31:18;4.05;;;2.63;;
18251;SDS011;26917;52.328;20.878;2022-08-01T08:34:07;4.53;;;2.92;;
18251;SDS011;26917;52.328;20.878;2022-08-01T08:36:45;4.40;;;2.92;;
18251;SDS011;26917;52.328;20.878;2022-08-01T08:39:15;6.22;;;2.78;;
18251;SDS011;26917;52.328;20.878;2022-08-01T08:41:46;4.68;;;2.95;;
18251;SDS011;26917;52.328;20.878;2022-08-01T08:44:17;3.55;;;2.90;;
18251;SDS011;26917;52.328;20.878;2022-08-01T08:46:48;3.60;;;3.10;;
18251;SDS011;26917;52.328;20.878;2022-08-01T08:49:19;6.15;;;3.17;;
18251;SDS011;26917;52.328;20.878;2022-08-01T08:54:42;5.00;;;3.10;;
18251;SDS011;26917;52.328;20.878;2022-08-01T08:57:13;9.88;;;3.30;;
18251;SDS011;26917;52.328;20.878;2022-08-01T08:59:44;3.78;;;3.30;;
18251;SDS011;26917;52.328;20.878;2022-08-01T09:02:13;7.47;;;4.22;;
18251;SDS011;26917;52.328;20.878;2022-08-01T09:04:43;5.63;;;4.25;;
18251;SDS011;26917;52.328;20.878;2022-08-01T09:07:13;5.45;;;3.25;;
18251;SDS011;26917;52.328;20.878;2022-08-01T09:09:42;5.05;;;3.17;;
18251;SDS011;26917;52.328;20.878;2022-08-01T09:12:15;7.07;;;3.00;;
18251;SDS011;26917;52.328;20.878;2022-08-01T09:14:44;3.17;;;2.90;;
18251;SDS011;26917;52.328;20.878;2022-08-01T09:17:16;3.45;;;3.25;;
18251;SDS011;26917;52.328;20.878;2022-08-01T09:19:45;4.15;;;2.90;;
18251;SDS011;26917;52.328;20.878;2022-08-01T09:22:38;4.63;;;3.67;;
18251;SDS011;26917;52.328;20.878;2022-08-01T09:25:13;4.20;;;3.08;;
18251;SDS011;26917;52.328;20.878;2022-08-01T09:27:42;3.08;;;2.83;;
18251;SDS011;26917;52.328;20.878;2022-08-01T09:30:17;3.58;;;2.25;;
18251;SDS011;26917;52.328;20.878;2022-08-01T09:32:55;4.22;;;3.15;;
18251;SDS011;26917;52.328;20.878;2022-08-01T09:35:25;8.32;;;3.55;;
18251;SDS011;26917;52.328;20.878;2022-08-01T09:38:15;4.85;;;2.78;;
18251;SDS011;26917;52.328;20.878;2022-08-01T09:40:46;4.70;;;4.30;;
18251;SDS011;26917;52.328;20.878;2022-08-01T09:43:28;4.82;;;4.43;;
18251;SDS011;26917;52.328;20.878;2022-08-01T09:45:58;2.97;;;2.78;;
18251;SDS011;26917;52.328;20.878;2022-08-01T09:48:37;3.13;;;2.53;;
18251;SDS011;26917;52.328;20.878;2022-08-01T09:51:07;4.13;;;3.78;;
18251;SDS011;26917;52.328;20.878;2022-08-01T09:54:16;4.88;;;4.38;;
18251;SDS011;26917;52.328;20.878;2022-08-01T09:57:09;5.07;;;2.83;;
18251;SDS011;26917;52.328;20.878;2022-08-01T09:59:41;4.72;;;4.28;;
18251;SDS011;26917;52.328;20.878;2022-08-01T10:02:30;4.82;;;4.35;;
18251;SDS011;26917;52.328;20.878;2022-08-01T10:05:00;6.70;;;2.95;;
18251;SDS011;26917;52.328;20.878;2022-08-01T10:07:34;6.22;;;4.03;;
18251;SDS011;26917;52.328;20.878;2022-08-01T10:12:58;5.72;;;3.45;;
18251;SDS011;26917;52.328;20.878;2022-08-01T10:15:28;8.90;;;3.65;;
18251;SDS011;26917;52.328;20.878;2022-08-01T10:18:04;3.38;;;2.90;;
18251;SDS011;26917;52.328;20.878;2022-08-01T10:20:51;4.88;;;3.30;;
18251;SDS011;26917;52.328;20.878;2022-08-01T10:23:23;3.17;;;2.85;;
18251;SDS011;26917;52.328;20.878;2022-08-01T10:26:08;3.35;;;2.90;;
18251;SDS011;26917;52.328;20.878;2022-08-01T10:28:39;3.33;;;3.05;;
18251;SDS011;26917;52.328;20.878;2022-08-01T10:31:11;6.97;;;2.78;;
18251;SDS011;26917;52.328;20.878;2022-08-01T10:33:42;3.40;;;3.10;;
18251;SDS011;26917;52.328;20.878;2022-08-01T10:36:18;3.17;;;2.88;;
18251;SDS011;26917;52.328;20.878;2022-08-01T10:38:51;3.80;;;2.92;;
18251;SDS011;26917;52.328;20.878;2022-08-01T10:41:40;6.72;;;2.70;;
18251;SDS011;26917;52.328;20.878;2022-08-01T10:44:21;5.55;;;2.40;;
18251;SDS011;26917;52.328;20.878;2022-08-01T10:46:51;6.05;;;3.38;;
18251;SDS011;26917;52.328;20.878;2022-08-01T10:49:23;3.90;;;2.78;;
18251;SDS011;26917;52.328;20.878;2022-08-01T10:51:55;5.03;;;3.45;;
18251;SDS011;26917;52.328;20.878;2022-08-01T10:54:25;5.45;;;3.28;;
18251;SDS011;26917;52.328;20.878;2022-08-01T10:56:55;5.80;;;2.60;;
18251;SDS011;26917;52.328;20.878;2022-08-01T10:59:29;5.38;;;2.13;;
18251;SDS011;26917;52.328;20.878;2022-08-01T11:02:27;3.38;;;3.08;;
18251;SDS011;26917;52.328;20.878;2022-08-01T11:05:00;10.50;;;3.28;;
18251;SDS011;26917;52.328;20.878;2022-08-01T11:07:37;9.35;;;6.35;;
18251;SDS011;26917;52.328;20.878;2022-08-01T11:10:19;5.40;;;3.00;;
18251;SDS011;26917;52.328;20.878;2022-08-01T11:12:56;3.47;;;3.17;;
18251;SDS011;26917;52.328;20.878;2022-08-01T11:15:29;6.45;;;2.38;;
18251;SDS011;26917;52.328;20.878;2022-08-01T11:18:01;3.38;;;2.75;;
18251;SDS011;26917;52.328;20.878;2022-08-01T11:21:12;5.10;;;3.85;;
18251;SDS011;26917;52.328;20.878;2022-08-01T11:24:00;4.65;;;3.20;;
18251;SDS011;26917;52.328;20.878;2022-08-01T11:26:29;6.38;;;4.93;;
18251;SDS011;26917;52.328;20.878;2022-08-01T11:29:14;4.50;;;3.75;;
18251;SDS011;26917;52.328;20.878;2022-08-01T11:31:51;3.67;;;2.95;;
18251;SDS011;26917;52.328;20.878;2022-08-01T11:37:22;5.93;;;5.35;;
18251;SDS011;26917;52.328;20.878;2022-08-01T11:45:50;6.85;;;2.72;;
18251;SDS011;26917;52.328;20.878;2022-08-01T11:48:23;3.60;;;3.30;;
18251;SDS011;26917;52.328;20.878;2022-08-01T11:50:56;3.55;;;3.00;;
18251;SDS011;26917;52.328;20.878;2022-08-01T11:53:27;3.78;;;2.63;;
18251;SDS011;26917;52.328;20.878;2022-08-01T11:55:58;3.33;;;2.92;;
18251;SDS011;26917;52.328;20.878;2022-08-01T11:58:27;4.40;;;2.28;;
18251;SDS011;26917;52.328;20.878;2022-08-01T12:00:58;6.78;;;3.20;;
18251;SDS011;26917;52.328;20.878;2022-08-01T12:03:27;7.38;;;2.65;;
18251;SDS011;26917;52.328;20.878;2022-08-01T12:06:00;2.95;;;2.60;;
18251;SDS011;26917;52.328;20.878;2022-08-01T12:08:29;5.93;;;2.70;;
18251;SDS011;26917;52.328;20.878;2022-08-01T12:11:01;3.72;;;2.60;;
18251;SDS011;26917;52.328;20.878;2022-08-01T12:13:39;3.65;;;2.83;;
18251;SDS011;26917;52.328;20.878;2022-08-01T12:16:11;3.83;;;2.97;;
18251;SDS011;26917;52.328;20.878;2022-08-01T12:18:40;4.22;;;3.00;;
18251;SDS011;26917;52.328;20.878;2022-08-01T12:21:10;3.17;;;2.10;;
18251;SDS011;26917;52.328;20.878;2022-08-01T12:23:38;5.63;;;3.35;;
18251;SDS011;26917;52.328;20.878;2022-08-01T12:26:06;5.35;;;2.60;;
18251;SDS011;26917;52.328;20.878;2022-08-01T12:28:55;4.30;;;3.90;;
18251;SDS011;26917;52.328;20.878;2022-08-01T12:31:32;4.00;;;3.70;;
18251;SDS011;26917;52.328;20.878;2022-08-01T12:36:54;3.55;;;2.97;;
18251;SDS011;26917;52.328;20.878;2022-08-01T12:39:28;7.20;;;2.80;;
18251;SDS011;26917;52.328;20.878;2022-08-01T12:41:59;5.88;;;3.40;;
18251;SDS011;26917;52.328;20.878;2022-08-01T12:44:28;4.40;;;3.22;;
18251;SDS011;26917;52.328;20.878;2022-08-01T12:46:59;4.00;;;3.67;;
18251;SDS011;26917;52.328;20.878;2022-08-01T12:49:31;2.85;;;2.65;;
18251;SDS011;26917;52.328;20.878;2022-08-01T12:52:00;6.50;;;4.32;;
18251;SDS011;26917;52.328;20.878;2022-08-01T12:54:29;6.18;;;3.60;;
18251;SDS011;26917;52.328;20.878;2022-08-01T12:56:58;6.07;;;3.72;;
18251;SDS011;26917;52.328;20.878;2022-08-01T12:59:27;3.63;;;3.33;;
18251;SDS011;26917;52.328;20.878;2022-08-01T13:01:56;8.60;;;4.47;;
18251;SDS011;26917;52.328;20.878;2022-08-01T13:04:26;6.82;;;3.80;;
18251;SDS011;26917;52.328;20.878;2022-08-01T13:06:55;8.02;;;3.83;;
18251;SDS011;26917;52.328;20.878;2022-08-01T13:09:23;5.55;;;3.80;;
18251;SDS011;26917;52.328;20.878;2022-08-01T13:11:53;5.63;;;4.45;;
18251;SDS011;26917;52.328;20.878;2022-08-01T13:14:30;8.50;;;4.55;;
18251;SDS011;26917;52.328;20.878;2022-08-01T13:16:58;4.55;;;3.80;;
18251;SDS011;26917;52.328;20.878;2022-08-01T13:22:13;5.15;;;4.65;;
18251;SDS011;26917;52.328;20.878;2022-08-01T13:24:42;4.97;;;4.47;;
18251;SDS011;26917;52.328;20.878;2022-08-01T13:27:19;7.60;;;5.03;;
18251;SDS011;26917;52.328;20.878;2022-08-01T13:29:49;4.85;;;4.45;;
18251;SDS011;26917;52.328;20.878;2022-08-01T13:32:20;6.00;;;4.78;;
18251;SDS011;26917;52.328;20.878;2022-08-01T13:35:01;6.63;;;4.72;;
18251;SDS011;26917;52.328;20.878;2022-08-01T13:37:31;5.07;;;4.57;;
18251;SDS011;26917;52.328;20.878;2022-08-01T13:40:02;5.25;;;4.70;;
18251;SDS011;26917;52.328;20.878;2022-08-01T13:42:31;7.05;;;4.88;;
18251;SDS011;26917;52.328;20.878;2022-08-01T13:45:00;10.00;;;5.05;;
18251;SDS011;26917;52.328;20.878;2022-08-01T13:47:29;8.13;;;5.72;;
18251;SDS011;26917;52.328;20.878;2022-08-01T13:49:58;4.85;;;4.50;;
18251;SDS011;26917;52.328;20.878;2022-08-01T13:52:32;6.03;;;4.82;;
18251;SDS011;26917;52.328;20.878;2022-08-01T13:55:00;4.65;;;4.25;;
18251;SDS011;26917;52.328;20.878;2022-08-01T13:57:36;5.25;;;4.80;;
18251;SDS011;26917;52.328;20.878;2022-08-01T14:00:06;8.07;;;4.45;;
18251;SDS011;26917;52.328;20.878;2022-08-01T14:02:38;5.25;;;4.80;;
18251;SDS011;26917;52.328;20.878;2022-08-01T14:05:07;5.50;;;5.03;;
18251;SDS011;26917;52.328;20.878;2022-08-01T14:10:22;7.32;;;3.88;;
18251;SDS011;26917;52.328;20.878;2022-08-01T14:12:50;7.53;;;4.90;;
18251;SDS011;26917;52.328;20.878;2022-08-01T14:15:22;4.80;;;4.25;;
18251;SDS011;26917;52.328;20.878;2022-08-01T14:18:05;6.68;;;4.22;;
18251;SDS011;26917;52.328;20.878;2022-08-01T14:20:38;8.02;;;4.90;;
18251;SDS011;26917;52.328;20.878;2022-08-01T14:23:08;8.15;;;4.75;;
18251;SDS011;26917;52.328;20.878;2022-08-01T14:25:36;4.63;;;4.30;;
18251;SDS011;26917;52.328;20.878;2022-08-01T14:28:26;5.53;;;5.00;;
18251;SDS011;26917;52.328;20.878;2022-08-01T14:30:56;8.13;;;5.57;;
18251;SDS011;26917;52.328;20.878;2022-08-01T14:33:25;6.30;;;5.70;;
18251;SDS011;26917;52.328;20.878;2022-08-01T14:35:54;5.18;;;4.10;;
18251;SDS011;26917;52.328;20.878;2022-08-01T14:38:44;5.07;;;4.30;;
18251;SDS011;26917;52.328;20.878;2022-08-01T14:41:13;6.53;;;5.10;;
18251;SDS011;26917;52.328;20.878;2022-08-01T14:43:42;8.20;;;5.30;;
18251;SDS011;26917;52.328;20.878;2022-08-01T14:46:11;5.63;;;4.55;;
18251;SDS011;26917;52.328;20.878;2022-08-01T14:48:39;5.60;;;5.03;;
18251;SDS011;26917;52.328;20.878;2022-08-01T14:51:08;6.25;;;5.60;;
18251;SDS011;26917;52.328;20.878;2022-08-01T14:53:36;6.32;;;4.72;;
18251;SDS011;26917;52.328;20.878;2022-08-01T14:56:14;6.07;;;4.70;;
18251;SDS011;26917;52.328;20.878;2022-08-01T14:58:49;6.32;;;4.68;;
18251;SDS011;26917;52.328;20.878;2022-08-01T15:01:17;7.47;;;5.38;;
18251;SDS011;26917;52.328;20.878;2022-08-01T15:03:49;4.82;;;4.35;;
18251;SDS011;26917;52.328;20.878;2022-08-01T15:06:17;5.45;;;4.95;;
18251;SDS011;26917;52.328;20.878;2022-08-01T15:08:46;6.07;;;4.68;;
18251;SDS011;26917;52.328;20.878;2022-08-01T15:11:15;6.15;;;5.57;;
18251;SDS011;26917;52.328;20.878;2022-08-01T15:13:44;4.70;;;4.22;;
18251;SDS011;26917;52.328;20.878;2022-08-01T15:16:33;5.22;;;4.50;;
18251;SDS011;26917;52.328;20.878;2022-08-01T15:19:01;6.28;;;5.72;;
18251;SDS011;26917;52.328;20.878;2022-08-01T15:21:30;5.50;;;4.97;;
18251;SDS011;26917;52.328;20.878;2022-08-01T15:24:07;7.53;;;5.10;;
18251;SDS011;26917;52.328;20.878;2022-08-01T15:26:47;6.50;;;4.72;;
18251;SDS011;26917;52.328;20.878;2022-08-01T15:29:16;4.85;;;4.45;;
18251;SDS011;26917;52.328;20.878;2022-08-01T15:31:45;6.05;;;5.05;;
18251;SDS011;26917;52.328;20.878;2022-08-01T15:34:13;5.78;;;5.32;;
18251;SDS011;26917;52.328;20.878;2022-08-01T15:36:42;5.38;;;4.40;;
18251;SDS011;26917;52.328;20.878;2022-08-01T15:39:14;5.70;;;4.50;;
18251;SDS011;26917;52.328;20.878;2022-08-01T15:41:44;6.85;;;3.80;;
18251;SDS011;26917;52.328;20.878;2022-08-01T15:44:12;4.88;;;4.50;;